createdAt,value
2018-09-22T00:00:15.903Z,100983.75
2018-09-22T00:00:54.818Z,100983.48
2018-09-22T00:01:33.943Z,100986.17
2018-09-22T00:02:12.834Z,100983.48
2018-09-22T00:02:52.983Z,100986.17
2018-09-22T00:03:32.882Z,100992.37
2018-09-22T00:04:11.909Z,100984.55
2018-09-22T00:04:50.537Z,100993.44
2018-09-22T00:05:29.217Z,100993.73
2018-09-22T00:06:07.688Z,100994.80
2018-09-22T00:06:46.627Z,100996.41
2018-09-22T00:07:24.920Z,100993.98
2018-09-22T00:08:03.208Z,100999.09
2018-09-22T00:08:42.247Z,100991.28
2018-09-22T00:09:20.598Z,100999.63
2018-09-22T00:09:58.476Z,101001.78
2018-09-22T00:10:37.019Z,101001.23
2018-09-22T00:11:14.986Z,101005.02
2018-09-22T00:11:52.930Z,100998.55
2018-09-22T00:12:31.049Z,101007.16
2018-09-22T00:13:08.986Z,101010.93
2018-09-22T00:13:47.064Z,101008.77
2018-09-22T00:14:24.980Z,101008.77
2018-09-22T00:15:03.052Z,101012.80
2018-09-22T00:15:40.965Z,101019.52
2018-09-22T00:16:18.882Z,101020.08
2018-09-22T00:16:57.991Z,101020.34
2018-09-22T00:17:36.562Z,101021.69
2018-09-22T00:18:18.829Z,101024.92
2018-09-22T00:18:57.727Z,101018.98
2018-09-22T00:19:35.784Z,101023.05
2018-09-22T00:20:15.808Z,101021.96
2018-09-22T00:20:55.068Z,101023.30
2018-09-22T00:21:33.996Z,101023.02
2018-09-22T00:22:12.081Z,101026.78
2018-09-22T00:22:50.360Z,101021.11
2018-09-22T00:23:29.453Z,101026.48
2018-09-22T00:24:07.571Z,101029.99
2018-09-22T00:24:45.699Z,101029.44
2018-09-22T00:25:24.004Z,101029.16
2018-09-22T00:26:02.026Z,101031.58
2018-09-22T00:26:40.489Z,101031.84
2018-09-22T00:27:18.538Z,101034.27
2018-09-22T00:27:56.514Z,101033.19
2018-09-22T00:28:34.954Z,101039.11
2018-09-22T00:29:16.200Z,101039.38
2018-09-22T00:29:54.185Z,101033.70
2018-09-22T00:30:32.876Z,101041.51
2018-09-22T00:31:10.918Z,101039.34
2018-09-22T00:31:50.462Z,101048.22
2018-09-22T00:32:28.536Z,101047.94
2018-09-22T00:33:09.047Z,101045.23
2018-09-22T00:33:48.029Z,101051.95
2018-09-22T00:34:26.009Z,101048.97
2018-09-22T00:35:04.805Z,101048.19
2018-09-22T00:35:44.584Z,101048.70
2018-09-22T00:36:25.424Z,101055.16
2018-09-22T00:37:04.348Z,101055.14
2018-09-22T00:37:44.169Z,101056.22
2018-09-22T00:38:24.432Z,101051.89
2018-09-22T00:39:02.755Z,101060.51
2018-09-22T00:39:40.702Z,101054.81
2018-09-22T00:40:18.720Z,101056.72
2018-09-22T00:40:57.784Z,101038.62
2018-09-22T00:41:37.981Z,101055.59
2018-09-22T00:42:17.108Z,101052.88
2018-09-22T00:42:55.075Z,101049.34
2018-09-22T00:43:34.469Z,101055.53
2018-09-22T00:44:12.595Z,101059.03
2018-09-22T00:44:51.049Z,101054.42
2018-09-22T00:45:29.148Z,101057.91
2018-09-22T00:46:07.141Z,101054.15
2018-09-22T00:46:47.043Z,101057.37
2018-09-22T00:47:27.308Z,101056.55
2018-09-22T00:48:06.099Z,101065.42
2018-09-22T00:48:44.173Z,101058.94
2018-09-22T00:49:23.476Z,101067.56
2018-09-22T00:50:02.565Z,101061.62
2018-09-22T00:50:41.340Z,101059.70
2018-09-22T00:51:20.055Z,101062.92
2018-09-22T00:51:58.542Z,101061.55
2018-09-22T00:52:38.170Z,101064.77
2018-09-22T00:53:16.262Z,101062.34
2018-09-22T00:53:54.405Z,101058.30
2018-09-22T00:54:37.729Z,101053.70
2018-09-22T00:55:16.310Z,101064.69
2018-09-22T00:55:55.530Z,101065.72
2018-09-22T00:56:33.757Z,101067.86
2018-09-22T00:57:11.758Z,101051.41
2018-09-22T00:57:49.914Z,101061.89
2018-09-22T00:58:28.055Z,101061.83
2018-09-22T00:59:06.238Z,101059.36
2018-09-22T00:59:46.264Z,101051.52
2018-09-22T01:00:24.299Z,101062.25
2018-09-22T01:01:02.659Z,101066.23
2018-09-22T01:01:40.727Z,101068.88
2018-09-22T01:02:19.681Z,101069.66
2018-09-22T01:02:57.564Z,101068.86
2018-09-22T01:03:36.128Z,101066.67
2018-09-22T01:04:14.135Z,101073.11
2018-09-22T01:04:52.068Z,101072.05
2018-09-22T01:05:30.166Z,101072.27
2018-09-22T01:06:08.102Z,101076.84
2018-09-22T01:06:47.164Z,101079.77
2018-09-22T01:07:25.091Z,101077.06
2018-09-22T01:08:02.897Z,101080.00
2018-09-22T01:08:42.141Z,101075.91
2018-09-22T01:09:20.983Z,101082.93
2018-09-22T01:09:58.935Z,101075.59
2018-09-22T01:10:37.657Z,101078.00
2018-09-22T01:11:15.626Z,101080.16
2018-09-22T01:11:55.492Z,101072.59
2018-09-22T01:12:33.447Z,101082.31
2018-09-22T01:13:11.439Z,101083.38
2018-09-22T01:13:49.532Z,101082.28
2018-09-22T01:14:27.431Z,101081.73
2018-09-22T01:15:05.401Z,101081.99
2018-09-22T01:15:43.648Z,101075.81
2018-09-22T01:16:21.689Z,101078.52
2018-09-22T01:16:59.834Z,101076.91
2018-09-22T01:17:37.940Z,101086.56
2018-09-22T01:18:17.459Z,101092.52
2018-09-22T01:18:56.112Z,101091.72
2018-09-22T01:19:35.716Z,101090.87
2018-09-22T01:20:13.920Z,101097.34
2018-09-22T01:20:54.528Z,101096.80
2018-09-22T01:21:32.514Z,101096.22
2018-09-22T01:22:10.567Z,101093.52
2018-09-22T01:22:48.630Z,101082.15
2018-09-22T01:23:26.730Z,101092.02
2018-09-22T01:24:04.604Z,101097.87
2018-09-22T01:24:46.247Z,101089.42
2018-09-22T01:25:24.449Z,101092.64
2018-09-22T01:26:02.680Z,101082.33
2018-09-22T01:26:40.696Z,101089.30
2018-09-22T01:27:19.214Z,101089.81
2018-09-22T01:27:59.851Z,101091.68
2018-09-22T01:28:39.761Z,101091.94
2018-09-22T01:29:20.840Z,101087.03
2018-09-22T01:29:59.431Z,101084.07
2018-09-22T01:30:39.521Z,101091.31
2018-09-22T01:31:18.175Z,101087.77
2018-09-22T01:32:00.620Z,101091.52
2018-09-22T01:32:39.579Z,101090.69
2018-09-22T01:33:18.553Z,101087.17
2018-09-22T01:33:56.676Z,101087.13
2018-09-22T01:34:37.972Z,101089.49
2018-09-22T01:35:16.053Z,101088.06
2018-09-22T01:35:54.312Z,101084.70
2018-09-22T01:36:33.265Z,101088.42
2018-09-22T01:37:12.617Z,101087.66
2018-09-22T01:37:50.576Z,101082.50
2018-09-22T01:38:28.563Z,101087.47
2018-09-22T01:39:07.439Z,101083.15
2018-09-22T01:39:45.697Z,101084.98
2018-09-22T01:40:23.652Z,101084.89
2018-09-22T01:41:06.214Z,101078.88
2018-09-22T01:41:45.620Z,101085.30
2018-09-22T01:42:23.854Z,101082.42
2018-09-22T01:43:01.833Z,101081.81
2018-09-22T01:43:41.429Z,101079.08
2018-09-22T01:44:20.457Z,101076.37
2018-09-22T01:44:59.113Z,101080.44
2018-09-22T01:45:39.916Z,101080.69
2018-09-22T01:46:20.591Z,101080.08
2018-09-22T01:47:03.859Z,101081.56
2018-09-22T01:47:49.073Z,101079.22
2018-09-22T01:48:28.203Z,101080.31
2018-09-22T01:49:07.325Z,101080.02
2018-09-22T01:49:45.688Z,101085.39
2018-09-22T01:50:27.125Z,101081.88
2018-09-22T01:51:06.402Z,101083.42
2018-09-22T01:51:44.757Z,101087.23
2018-09-22T01:52:24.922Z,101086.49
2018-09-22T01:53:09.182Z,101085.69
2018-09-22T01:53:48.120Z,101088.45
2018-09-22T01:54:27.959Z,101086.82
2018-09-22T01:55:10.364Z,101098.78
2018-09-22T01:55:49.569Z,101090.14
2018-09-22T01:56:28.985Z,101091.20
2018-09-22T01:57:09.489Z,101091.45
2018-09-22T01:57:48.460Z,101093.35
2018-09-22T01:58:28.403Z,101098.28
2018-09-22T01:59:08.348Z,101088.53
2018-09-22T01:59:48.103Z,101090.89
2018-09-22T02:00:27.891Z,101088.95
2018-09-22T02:01:11.964Z,101090.04
2018-09-22T02:01:50.057Z,101086.16
2018-09-22T02:02:29.551Z,101085.22
2018-09-22T02:03:10.563Z,101086.59
2018-09-22T02:03:49.400Z,101091.84
2018-09-22T02:04:32.862Z,101088.02
2018-09-22T02:05:12.734Z,101090.50
2018-09-22T02:05:55.019Z,101089.14
2018-09-22T02:06:35.131Z,101087.84
2018-09-22T02:07:13.411Z,101091.73
2018-09-22T02:07:53.915Z,101090.62
2018-09-22T02:08:32.994Z,101089.26
2018-09-22T02:09:14.560Z,101090.73
2018-09-22T02:09:55.881Z,101097.77
2018-09-22T02:10:34.972Z,101093.95
2018-09-22T02:11:15.184Z,101093.64
2018-09-22T02:11:53.697Z,101090.62
2018-09-22T02:12:31.690Z,101094.32
2018-09-22T02:13:09.784Z,101092.84
2018-09-22T02:13:48.609Z,101090.87
2018-09-22T02:14:26.901Z,101091.77
2018-09-22T02:15:05.202Z,101090.53
2018-09-22T02:15:45.128Z,101088.95
2018-09-22T02:16:30.789Z,101088.47
2018-09-22T02:17:16.323Z,101094.90
2018-09-22T02:18:02.138Z,101091.77
2018-09-22T02:18:42.642Z,101098.17
2018-09-22T02:19:22.027Z,101094.03
2018-09-22T02:20:02.924Z,101098.99
2018-09-22T02:20:41.569Z,101105.94
2018-09-22T02:21:20.514Z,101103.12
2018-09-22T02:22:02.935Z,101101.34
2018-09-22T02:22:43.417Z,101107.41
2018-09-22T02:23:22.568Z,101104.56
2018-09-22T02:24:00.857Z,101103.38
2018-09-22T02:24:40.429Z,101107.77
2018-09-22T02:25:18.539Z,101110.94
2018-09-22T02:25:58.006Z,101102.41
2018-09-22T02:26:36.597Z,101105.88
2018-09-22T02:27:14.721Z,101108.73
2018-09-22T02:27:53.467Z,101112.42
2018-09-22T02:28:31.477Z,101106.69
2018-09-22T02:29:09.732Z,101102.05
2018-09-22T02:29:47.956Z,101105.02
2018-09-22T02:30:33.783Z,101101.44
2018-09-22T02:31:11.726Z,101104.28
2018-09-22T02:31:50.601Z,101104.28
2018-09-22T02:32:30.670Z,101105.27
2018-09-22T02:33:16.397Z,101100.01
2018-09-22T02:33:54.349Z,101104.76
2018-09-22T02:34:34.300Z,101102.67
2018-09-22T02:35:13.388Z,101106.23
2018-09-22T02:35:51.308Z,101102.55
2018-09-22T02:36:29.953Z,101108.33
2018-09-22T02:37:08.130Z,101103.69
2018-09-22T02:37:46.124Z,101106.58
2018-09-22T02:38:25.720Z,101102.78
2018-09-22T02:39:04.546Z,101099.54
2018-09-22T02:39:42.383Z,101105.36
2018-09-22T02:40:20.526Z,101105.22
2018-09-22T02:40:58.501Z,101106.78
2018-09-22T02:41:37.451Z,101100.17
2018-09-22T02:42:16.519Z,101107.45
2018-09-22T02:42:54.644Z,101099.30
2018-09-22T02:43:32.677Z,101101.42
2018-09-22T02:44:10.636Z,101096.75
2018-09-22T02:44:49.555Z,101107.98
2018-09-22T02:45:28.514Z,101102.25
2018-09-22T02:46:07.883Z,101104.91
2018-09-22T02:46:46.092Z,101106.20
2018-09-22T02:47:24.669Z,101106.78
2018-09-22T02:48:02.605Z,101100.23
2018-09-22T02:48:40.590Z,101103.48
2018-09-22T02:49:19.218Z,101106.43
2018-09-22T02:49:57.249Z,101108.17
2018-09-22T02:50:36.312Z,101108.28
2018-09-22T02:51:14.981Z,101105.23
2018-09-22T02:51:53.932Z,101103.95
2018-09-22T02:52:31.836Z,101108.80
2018-09-22T02:53:09.928Z,101106.64
2018-09-22T02:53:50.285Z,101114.00
2018-09-22T02:54:29.119Z,101113.45
2018-09-22T02:55:07.833Z,101109.73
2018-09-22T02:55:45.816Z,101112.45
2018-09-22T02:56:25.289Z,101117.70
2018-09-22T02:57:04.390Z,101118.25
2018-09-22T02:57:42.373Z,101114.23
2018-09-22T02:58:20.558Z,101115.69
2018-09-22T02:58:58.599Z,101110.59
2018-09-22T02:59:36.637Z,101115.91
2018-09-22T03:00:14.835Z,101110.44
2018-09-22T03:00:52.700Z,101107.98
2018-09-22T03:01:30.695Z,101109.64
2018-09-22T03:02:08.577Z,101111.04
2018-09-22T03:02:47.541Z,101109.69
2018-09-22T03:03:25.865Z,101111.80
2018-09-22T03:04:04.257Z,101108.23
2018-09-22T03:04:44.250Z,101112.13
2018-09-22T03:05:22.481Z,101107.80
2018-09-22T03:06:01.224Z,101105.59
2018-09-22T03:06:39.485Z,101110.91
2018-09-22T03:07:17.796Z,101113.05
2018-09-22T03:07:55.719Z,101111.45
2018-09-22T03:08:33.726Z,101108.83
2018-09-22T03:09:18.362Z,101109.05
2018-09-22T03:09:56.348Z,101108.14
2018-09-22T03:10:38.638Z,101108.09
2018-09-22T03:11:19.831Z,101110.44
2018-09-22T03:11:57.965Z,101103.80
2018-09-22T03:12:37.046Z,101105.02
2018-09-22T03:13:15.741Z,101105.40
2018-09-22T03:13:54.040Z,101105.03
2018-09-22T03:14:32.024Z,101104.62
2018-09-22T03:15:11.720Z,101104.31
2018-09-22T03:15:50.540Z,101103.52
2018-09-22T03:16:28.490Z,101109.23
2018-09-22T03:17:06.531Z,101103.61
2018-09-22T03:17:44.607Z,101111.02
2018-09-22T03:18:23.606Z,101102.25
2018-09-22T03:19:07.651Z,101108.20
2018-09-22T03:19:46.960Z,101106.20
2018-09-22T03:20:25.698Z,101112.05
2018-09-22T03:21:03.711Z,101109.09
2018-09-22T03:21:41.980Z,101103.91
2018-09-22T03:22:20.022Z,101107.30
2018-09-22T03:22:58.754Z,101112.17
2018-09-22T03:23:36.694Z,101113.28
2018-09-22T03:24:15.068Z,101107.36
2018-09-22T03:24:52.941Z,101109.41
2018-09-22T03:25:37.026Z,101108.14
2018-09-22T03:26:17.048Z,101109.56
2018-09-22T03:27:03.898Z,101105.73
2018-09-22T03:28:40.839Z,101102.06
2018-09-22T03:30:23.268Z,101107.31
2018-09-22T03:31:02.031Z,101109.41
2018-09-22T03:31:46.846Z,101105.03
2018-09-22T03:32:31.296Z,101109.91
2018-09-22T03:34:04.044Z,101111.17
2018-09-22T03:34:46.621Z,101109.31
2018-09-22T03:35:28.368Z,101111.72
2018-09-22T03:36:07.717Z,101106.70
2018-09-22T03:36:47.687Z,101111.82
2018-09-22T03:37:26.293Z,101108.67
2018-09-22T03:38:07.266Z,101107.63
2018-09-22T03:38:46.068Z,101102.01
2018-09-22T03:39:26.388Z,101102.19
2018-09-22T03:40:07.796Z,101103.30
2018-09-22T03:40:50.101Z,101099.48
2018-09-22T03:41:33.655Z,101098.05
2018-09-22T03:42:11.897Z,101094.72
2018-09-22T03:42:49.977Z,101097.89
2018-09-22T03:43:28.006Z,101095.73
2018-09-22T03:44:11.987Z,101099.16
2018-09-22T03:44:59.843Z,101098.23
2018-09-22T03:45:38.482Z,101096.17
2018-09-22T03:46:17.398Z,101097.97
2018-09-22T03:46:55.689Z,101101.69
2018-09-22T03:47:34.465Z,101103.23
2018-09-22T03:48:13.313Z,101097.73
2018-09-22T03:48:51.332Z,101105.50
2018-09-22T03:49:29.651Z,101101.67
2018-09-22T03:50:07.918Z,101091.53
2018-09-22T03:50:51.469Z,101096.34
2018-09-22T03:51:30.543Z,101094.11
2018-09-22T03:52:09.443Z,101089.44
2018-09-22T03:52:52.130Z,101094.73
2018-09-22T03:53:33.001Z,101098.81
2018-09-22T03:54:11.142Z,101097.59
2018-09-22T03:54:49.081Z,101097.52
2018-09-22T03:55:27.961Z,101095.22
2018-09-22T03:56:06.661Z,101094.10
2018-09-22T03:56:45.162Z,101093.75
2018-09-22T03:57:24.044Z,101092.62
2018-09-22T03:58:03.266Z,101093.60
2018-09-22T03:58:41.357Z,101090.87
2018-09-22T03:59:24.180Z,101090.87
2018-09-22T04:00:02.127Z,101092.24
2018-09-22T04:00:40.222Z,101087.92
2018-09-22T04:01:18.434Z,101089.77
2018-09-22T04:01:56.559Z,101093.94
2018-09-22T04:02:34.637Z,101091.32
2018-09-22T04:03:13.484Z,101091.63
2018-09-22T04:03:51.539Z,101089.40
2018-09-22T04:04:30.503Z,101089.47
2018-09-22T04:05:09.223Z,101087.31
2018-09-22T04:05:47.639Z,101085.39
2018-09-22T04:06:26.240Z,101085.70
2018-09-22T04:07:05.678Z,101081.95
2018-09-22T04:07:43.545Z,101092.09
2018-09-22T04:08:23.049Z,101078.09
2018-09-22T04:09:02.008Z,101076.27
2018-09-22T04:09:40.013Z,101078.35
2018-09-22T04:10:18.049Z,101079.31
2018-09-22T04:10:56.111Z,101076.97
2018-09-22T04:11:34.110Z,101067.28
2018-09-22T04:12:13.101Z,101069.85
2018-09-22T04:12:51.092Z,101062.08
2018-09-22T04:13:29.373Z,101065.97
2018-09-22T04:14:08.405Z,101061.13
2018-09-22T04:14:48.245Z,101060.28
2018-09-22T04:15:27.458Z,101062.17
2018-09-22T04:16:10.343Z,101056.64
2018-09-22T04:16:48.725Z,101062.78
2018-09-22T04:17:27.591Z,101057.53
2018-09-22T04:18:06.457Z,101058.77
2018-09-22T04:18:45.384Z,101057.23
2018-09-22T04:19:24.487Z,101054.09
2018-09-22T04:20:02.598Z,101050.33
2018-09-22T04:20:40.930Z,101051.24
2018-09-22T04:21:18.831Z,101055.95
2018-09-22T04:21:56.830Z,101049.78
2018-09-22T04:22:41.017Z,101052.88
2018-09-22T04:23:18.917Z,101058.20
2018-09-22T04:23:56.964Z,101056.40
2018-09-22T04:24:39.424Z,101050.78
2018-09-22T04:25:18.708Z,101052.52
2018-09-22T04:26:03.527Z,101057.78
2018-09-22T04:26:48.572Z,101056.00
2018-09-22T04:27:36.767Z,101056.38
2018-09-22T04:29:42.459Z,101046.83
2018-09-22T04:30:20.965Z,101045.47
2018-09-22T04:30:58.887Z,101043.34
2018-09-22T04:31:42.447Z,101038.78
2018-09-22T04:32:20.543Z,101043.59
2018-09-22T04:32:58.601Z,101040.95
2018-09-22T04:33:36.550Z,101040.14
2018-09-22T04:35:02.726Z,101038.66
2018-09-22T04:35:41.296Z,101038.41
2018-09-22T04:36:19.382Z,101040.05
2018-09-22T04:36:57.767Z,101036.87
2018-09-22T04:37:38.673Z,101037.73
2018-09-22T04:38:30.686Z,101037.23
2018-09-22T04:39:10.910Z,101035.39
2018-09-22T04:39:50.190Z,101034.59
2018-09-22T04:40:28.551Z,101033.23
2018-09-22T04:41:20.633Z,101034.59
2018-09-22T04:42:01.235Z,101034.03
2018-09-22T04:42:41.103Z,101032.67
2018-09-22T04:43:18.996Z,101032.92
2018-09-22T04:44:00.273Z,101026.63
2018-09-22T04:44:39.028Z,101025.77
2018-09-22T04:45:18.126Z,101025.77
2018-09-22T04:45:56.759Z,101025.39
2018-09-22T04:46:35.233Z,101023.20
2018-09-22T04:47:17.762Z,101016.14
2018-09-22T04:48:08.754Z,101016.88
2018-09-22T04:48:51.615Z,101019.53
2018-09-22T04:49:29.611Z,101012.12
2018-09-22T04:50:09.332Z,101017.19
2018-09-22T04:50:48.839Z,101011.69
2018-09-22T04:51:28.898Z,101013.54
2018-09-22T04:52:07.060Z,101016.44
2018-09-22T04:52:45.725Z,101015.54
2018-09-22T04:53:24.624Z,101011.16
2018-09-22T04:54:05.652Z,101007.02
2018-09-22T04:54:43.855Z,101010.47
2018-09-22T04:55:22.068Z,101009.04
2018-09-22T04:56:01.177Z,101006.81
2018-09-22T04:56:40.569Z,101003.55
2018-09-22T04:57:18.643Z,101008.66
2018-09-22T04:57:57.904Z,101001.07
2018-09-22T04:59:27.011Z,100994.45
2018-09-22T05:00:15.282Z,100994.42
2018-09-22T05:00:55.312Z,100991.39
2018-09-22T05:01:35.328Z,100993.52
2018-09-22T05:02:15.252Z,100990.97
2018-09-22T05:02:54.107Z,100986.59
2018-09-22T05:03:32.346Z,100989.41
2018-09-22T05:04:10.261Z,100987.42
2018-09-22T05:04:48.264Z,100981.11
2018-09-22T05:05:26.297Z,100982.72
2018-09-22T05:06:04.334Z,100977.17
2018-09-22T05:06:46.962Z,100972.70
2018-09-22T05:07:25.028Z,100963.92
2018-09-22T05:08:07.083Z,100964.41
2018-09-22T05:08:48.477Z,100964.82
2018-09-22T05:09:28.836Z,100963.38
2018-09-22T05:10:08.453Z,100957.15
2018-09-22T05:10:52.584Z,100956.59
2018-09-22T05:11:31.676Z,100956.23
2018-09-22T05:12:09.949Z,100955.77
2018-09-22T05:12:48.243Z,100952.84
2018-09-22T05:13:27.660Z,100957.53
2018-09-22T05:14:05.666Z,100957.85
2018-09-22T05:14:43.946Z,100960.82
2018-09-22T05:15:22.139Z,100960.13
2018-09-22T05:16:02.194Z,100966.30
2018-09-22T05:16:40.175Z,100962.70
2018-09-22T05:17:19.391Z,100962.05
2018-09-22T05:17:59.050Z,100967.66
2018-09-22T05:18:46.069Z,100964.10
2018-09-22T05:19:25.231Z,100965.13
2018-09-22T05:20:09.447Z,100960.48
2018-09-22T05:20:50.010Z,100968.28
2018-09-22T05:21:28.027Z,100968.19
2018-09-22T05:22:05.945Z,100962.63
2018-09-22T05:22:44.049Z,100966.06
2018-09-22T05:23:22.415Z,100962.90
2018-09-22T05:24:07.356Z,100962.00
2018-09-22T05:25:54.979Z,100966.00
2018-09-22T05:26:32.907Z,100965.09
2018-09-22T05:28:08.266Z,100965.90
2018-09-22T05:29:40.637Z,100957.44
2018-09-22T05:30:20.888Z,100961.89
2018-09-22T05:30:59.715Z,100960.67
2018-09-22T05:31:40.118Z,100951.72
2018-09-22T05:32:18.292Z,100957.22
2018-09-22T05:32:57.193Z,100953.98
2018-09-22T05:33:36.388Z,100949.66
2018-09-22T05:34:15.365Z,100949.66
2018-09-22T05:35:05.176Z,100948.86
2018-09-22T05:35:44.913Z,100945.41
2018-09-22T05:36:23.334Z,100945.97
2018-09-22T05:37:06.903Z,100945.73
2018-09-22T05:37:47.011Z,100940.92
2018-09-22T05:38:33.985Z,100944.50
2018-09-22T05:40:01.160Z,100939.20
2018-09-22T05:40:46.987Z,100936.00
2018-09-22T05:41:28.345Z,100936.90
2018-09-22T05:42:10.454Z,100933.73
2018-09-22T05:42:49.923Z,100928.98
2018-09-22T05:43:36.640Z,100926.09
2018-09-22T05:44:18.982Z,100930.53
2018-09-22T05:45:00.359Z,100923.81
2018-09-22T05:45:39.244Z,100921.66
2018-09-22T05:47:02.674Z,100915.46
2018-09-22T05:47:42.041Z,100918.17
2018-09-22T05:48:22.831Z,100915.22
2018-09-22T05:49:05.803Z,100913.61
2018-09-22T05:49:44.637Z,100917.69
2018-09-22T05:50:24.983Z,100919.91
2018-09-22T05:51:07.974Z,100926.44
2018-09-22T05:51:45.983Z,100922.13
2018-09-22T05:52:24.856Z,100917.50
2018-09-22T05:53:11.253Z,100919.41
2018-09-22T05:53:50.400Z,100920.52
2018-09-22T05:54:28.881Z,100925.70
2018-09-22T05:55:06.972Z,100919.28
2018-09-22T05:55:44.974Z,100924.47
2018-09-22T05:56:23.759Z,100923.97
2018-09-22T05:57:04.992Z,100922.38
2018-09-22T05:57:43.930Z,100923.23
2018-09-22T05:58:21.805Z,100922.98
2018-09-22T05:59:00.981Z,100920.83
2018-09-22T05:59:41.361Z,100921.11
2018-09-22T06:00:20.637Z,100920.61
2018-09-22T06:00:58.789Z,100920.86
2018-09-22T06:01:36.789Z,100915.44
2018-09-22T06:02:16.224Z,100907.30
2018-09-22T06:02:58.183Z,100906.19
2018-09-22T06:03:39.003Z,100905.08
2018-09-22T06:04:18.133Z,100904.49
2018-09-22T06:04:56.521Z,100909.92
2018-09-22T06:05:39.516Z,100907.94
2018-09-22T06:06:19.320Z,100906.28
2018-09-22T06:06:58.798Z,100906.03
2018-09-22T06:07:37.678Z,100912.50
2018-09-22T06:08:16.608Z,100916.58
2018-09-22T06:08:55.727Z,100911.15
2018-09-22T06:09:34.033Z,100913.31
2018-09-22T06:10:11.954Z,100917.94
2018-09-22T06:10:49.932Z,100916.33
2018-09-22T06:11:34.596Z,100920.15
2018-09-22T06:12:12.606Z,100913.19
2018-09-22T06:12:50.589Z,100916.76
2018-09-22T06:13:28.926Z,100917.90
2018-09-22T06:14:08.201Z,100914.94
2018-09-22T06:14:46.405Z,100915.25
2018-09-22T06:15:28.601Z,100910.94
2018-09-22T06:16:07.363Z,100912.63
2018-09-22T06:16:45.401Z,100913.73
2018-09-22T06:17:23.698Z,100912.38
2018-09-22T06:18:59.579Z,100907.81
2018-09-22T06:19:37.728Z,100905.41
2018-09-22T06:20:16.764Z,100907.87
2018-09-22T06:20:54.990Z,100904.12
2018-09-22T06:21:33.195Z,100908.98
2018-09-22T06:22:11.282Z,100907.87
2018-09-22T06:22:49.296Z,100905.72
2018-09-22T06:23:27.631Z,100904.92
2018-09-22T06:24:05.753Z,100906.52
2018-09-22T06:24:43.981Z,100906.83
2018-09-22T06:25:23.029Z,100908.98
2018-09-22T06:26:02.055Z,100909.54
2018-09-22T06:26:40.047Z,100903.06
2018-09-22T06:27:18.121Z,100905.00
2018-09-22T06:27:56.447Z,100901.49
2018-09-22T06:28:35.653Z,100901.05
2018-09-22T06:29:14.191Z,100903.52
2018-09-22T06:29:52.189Z,100906.91
2018-09-22T06:30:30.478Z,100899.44
2018-09-22T06:31:08.461Z,100904.36
2018-09-22T06:31:46.596Z,100901.16
2018-09-22T06:32:24.755Z,100903.89
2018-09-22T06:33:02.769Z,100900.63
2018-09-22T06:33:45.699Z,100902.04
2018-09-22T06:34:24.778Z,100897.17
2018-09-22T06:35:02.712Z,100893.41
2018-09-22T06:35:40.652Z,100894.77
2018-09-22T06:36:19.835Z,100896.68
2018-09-22T06:36:58.681Z,100888.85
2018-09-22T06:37:36.733Z,100885.70
2018-09-22T06:38:14.762Z,100885.70
2018-09-22T06:38:54.539Z,100878.13
2018-09-22T06:39:32.570Z,100879.23
2018-09-22T06:40:11.661Z,100881.14
2018-09-22T06:40:49.689Z,100880.89
2018-09-22T06:41:27.779Z,100876.83
2018-09-22T06:42:05.703Z,100878.18
2018-09-22T06:42:43.599Z,100874.97
2018-09-22T06:43:22.224Z,100876.08
2018-09-22T06:44:01.193Z,100878.54
2018-09-22T06:44:39.199Z,100872.34
2018-09-22T06:45:17.141Z,100870.71
2018-09-22T06:45:59.484Z,100871.32
2018-09-22T06:46:37.529Z,100866.76
2018-09-22T06:47:18.761Z,100870.33
2018-09-22T06:48:04.194Z,100865.20
2018-09-22T06:48:46.776Z,100868.22
2018-09-22T06:49:27.821Z,100866.12
2018-09-22T06:50:10.631Z,100867.22
2018-09-22T06:50:51.588Z,100864.02
2018-09-22T06:51:32.906Z,100866.23
2018-09-22T06:52:15.327Z,100865.73
2018-09-22T06:53:00.857Z,100860.89
2018-09-22T06:53:40.048Z,100863.40
2018-09-22T06:56:24.654Z,100855.68
2018-09-22T06:57:05.033Z,100862.56
2018-09-22T06:57:45.921Z,100861.76
2018-09-22T06:58:27.582Z,100856.39
2018-09-22T06:59:09.746Z,100855.89
2018-09-22T06:59:51.862Z,100857.52
2018-09-22T07:02:08.009Z,100855.41
2018-09-22T07:02:59.530Z,100854.61
2018-09-22T07:03:40.655Z,100856.27
2018-09-22T07:04:21.627Z,100860.33
2018-09-22T07:05:00.917Z,100856.81
2018-09-22T07:05:41.027Z,100854.11
2018-09-22T07:06:29.846Z,100852.47
2018-09-22T07:07:17.809Z,100850.62
2018-09-22T07:08:05.197Z,100851.97
2018-09-22T07:08:45.070Z,100859.55
2018-09-22T07:09:28.082Z,100851.97
2018-09-22T07:10:11.073Z,100846.00
2018-09-22T07:11:00.718Z,100851.97
2018-09-22T07:11:43.913Z,100851.97
2018-09-22T07:12:29.260Z,100849.62
2018-09-22T07:13:11.392Z,100846.36
2018-09-22T07:13:57.042Z,100848.27
2018-09-22T07:14:43.389Z,100845.86
2018-09-22T07:15:27.667Z,100845.05
2018-09-22T07:16:10.307Z,100841.00
2018-09-22T07:16:50.573Z,100834.58
2018-09-22T07:17:31.975Z,100837.19
2018-09-22T07:18:10.177Z,100841.50
2018-09-22T07:18:57.069Z,100835.03
2018-09-22T07:19:40.360Z,100839.89
2018-09-22T07:20:27.253Z,100839.89
2018-09-22T07:21:12.128Z,100840.44
2018-09-22T07:21:54.531Z,100843.41
2018-09-22T07:22:40.768Z,100842.34
2018-09-22T07:23:23.232Z,100838.29
2018-09-22T07:24:05.925Z,100835.88
2018-09-22T07:24:58.041Z,100840.50
2018-09-22T07:26:56.337Z,100836.19
2018-09-22T07:27:38.569Z,100831.13
2018-09-22T07:28:19.970Z,100829.48
2018-09-22T07:29:06.014Z,100830.59
2018-09-22T07:29:51.514Z,100824.13
2018-09-22T07:30:44.377Z,100828.48
2018-09-22T07:31:22.370Z,100822.02
2018-09-22T07:32:54.041Z,100823.67
2018-09-22T07:33:46.965Z,100818.81
2018-09-22T07:34:34.232Z,100818.56
2018-09-22T07:35:19.277Z,100818.86
2018-09-22T07:36:02.915Z,100813.20
2018-09-22T07:36:54.632Z,100808.89
2018-09-22T07:37:42.273Z,100810.74
2018-09-22T07:38:22.637Z,100807.78
2018-09-22T07:39:00.480Z,100809.39
2018-09-22T07:39:39.463Z,100807.19
2018-09-22T07:40:17.536Z,100806.33
2018-09-22T07:40:57.365Z,100803.63
2018-09-22T07:41:39.193Z,100802.77
2018-09-22T07:42:20.053Z,100801.12
2018-09-22T07:42:58.399Z,100800.81
2018-09-22T07:43:37.316Z,100802.70
2018-09-22T07:44:15.358Z,100800.24
2018-09-22T07:44:53.707Z,100803.20
2018-09-22T07:46:30.148Z,100809.97
2018-09-22T07:47:08.153Z,100805.30
2018-09-22T07:47:46.171Z,100801.49
2018-09-22T07:48:24.434Z,100801.44
2018-09-22T07:49:04.418Z,100802.99
2018-09-22T07:49:42.557Z,100800.78
2018-09-22T07:50:21.244Z,100800.21
2018-09-22T07:51:00.404Z,100799.66
2018-09-22T07:51:39.384Z,100801.52
2018-09-22T07:52:18.252Z,100797.70